Time;durP1;ratioP1;P1;durP2;ratioP2;P2;SDS_P1;SDS_P2;PMS_P1;PMS_P2;Temp;Humidity;BMP_temperature;BMP_pressure;BME280_temperature;BME280_humidity;BME280_pressure;Samples;Min_cycle;Max_cycle;Signal;HPM_P1;HPM_P2
2023/12/27 04:15:30;;;;;;;15.63;5.43;;;11.90;99.90;;;;;;10609478;27;20131;-67
2023/12/27 04:20:32;;;;;;;11.68;5.07;;;11.90;99.90;;;;;;10623131;27;20127;-68
2023/12/27 04:25:36;;;;;;;11.93;5.03;;;12.20;99.90;;;;;;10623327;27;20141;-66
2023/12/27 04:30:39;;;;;;;12.15;4.28;;;12.00;99.90;;;;;;10616338;27;20134;-68
2023/12/27 04:35:41;;;;;;;16.45;5.22;;;12.10;99.90;;;;;;10623141;27;20059;-68
2023/12/27 04:40:45;;;;;;;12.00;4.53;;;12.20;99.90;;;;;;10622118;27;20062;-68
2023/12/27 04:45:50;;;;;;;11.50;4.88;;;12.00;99.90;;;;;;10618968;27;20074;-68
2023/12/27 04:50:52;;;;;;;12.75;5.18;;;12.10;99.90;;;;;;10622863;27;20049;-68
2023/12/27 04:55:54;;;;;;;15.95;5.70;;;12.30;99.90;;;;;;10611536;27;20070;-68
2023/12/27 05:00:58;;;;;;;13.43;6.33;;;12.30;99.90;;;;;;10621512;27;20053;-68
2023/12/27 05:06:00;;;;;;;14.35;4.70;;;12.00;99.90;;;;;;10622057;27;20046;-68
2023/12/27 05:11:02;;;;;;;13.00;4.37;;;12.70;99.90;;;;;;10613484;27;20047;-67
2023/12/27 05:16:10;;;;;;;17.67;5.10;;;12.80;99.90;;;;;;10619177;27;20043;-68
2023/12/27 05:21:14;;;;;;;16.30;4.95;;;12.70;99.90;;;;;;10620721;27;20744;-68
2023/12/27 05:26:16;;;;;;;6.65;3.72;;;12.70;99.90;;;;;;10594357;27;20769;-69
2023/12/27 05:31:20;;;;;;;11.73;4.00;;;12.50;99.90;;;;;;10592361;27;20039;-68
2023/12/27 05:36:22;;;;;;;10.70;3.78;;;12.70;99.90;;;;;;10590462;27;20055;-69
2023/12/27 05:41:25;;;;;;;10.70;4.43;;;13.10;99.90;;;;;;10591686;27;20039;-68
2023/12/27 05:46:29;;;;;;;9.23;3.70;;;13.00;99.90;;;;;;10590231;27;20051;-68
2023/12/27 05:51:31;;;;;;;13.82;3.60;;;12.80;99.90;;;;;;10590289;27;20048;-69
2023/12/27 05:56:34;;;;;;;19.03;4.73;;;12.60;99.90;;;;;;10590075;27;20618;-69
2023/12/27 06:01:52;;;;;;;10.68;4.15;;;12.90;99.90;;;;;;10590081;27;20054;-70
2023/12/27 06:06:54;;;;;;;16.58;4.57;;;12.90;99.90;;;;;;10586816;27;20051;-68
2023/12/27 06:11:56;;;;;;;7.93;3.07;;;12.90;99.90;;;;;;10588796;27;20422;-67
2023/12/27 06:17:01;;;;;;;10.60;4.13;;;12.60;99.90;;;;;;10592737;27;20051;-68
2023/12/27 06:22:03;;;;;;;10.27;3.80;;;13.10;99.90;;;;;;10593775;27;20051;-69
2023/12/27 06:27:10;;;;;;;11.98;4.43;;;12.90;99.90;;;;;;10589633;27;20155;-69
2023/12/27 06:32:13;;;;;;;7.45;3.35;;;13.50;99.90;;;;;;10579943;27;20055;-68
2023/12/27 06:37:16;;;;;;;9.77;3.80;;;13.00;99.90;;;;;;10588801;27;20470;-69
2023/12/27 06:42:19;;;;;;;12.30;3.65;;;13.40;99.90;;;;;;10589270;27;20069;-69
2023/12/27 06:47:23;;;;;;;8.32;3.70;;;13.70;99.90;;;;;;10588418;27;20442;-69
2023/12/27 06:52:25;;;;;;;7.43;3.03;;;13.90;99.90;;;;;;10586803;27;20099;-67
2023/12/27 06:57:27;;;;;;;6.20;2.63;;;13.80;99.90;;;;;;10584290;27;20152;-68
2023/12/27 07:02:30;;;;;;;0.20;0.20;;;13.70;99.90;;;;;;10587790;27;20075;-69
2023/12/27 07:07:32;;;;;;;0.10;0.10;;;13.70;99.90;;;;;;10568663;27;20107;-69
2023/12/27 07:12:34;;;;;;;0.10;0.10;;;13.80;99.90;;;;;;10585196;27;20183;-70
2023/12/27 07:17:38;;;;;;;0.13;0.13;;;13.80;99.90;;;;;;10586343;27;20054;-69
2023/12/27 07:22:40;;;;;;;1.17;1.13;;;14.00;99.90;;;;;;10578813;27;20058;-69
2023/12/27 07:27:42;;;;;;;0.10;0.10;;;13.90;99.90;;;;;;10580835;27;20107;-70
2023/12/27 07:32:48;;;;;;;0.10;0.10;;;13.60;99.90;;;;;;10581669;27;20047;-70
2023/12/27 07:37:50;;;;;;;0.10;0.10;;;13.80;99.90;;;;;;10573549;27;20054;-71
2023/12/27 07:42:53;;;;;;;0.10;0.10;;;14.00;99.90;;;;;;10584504;27;20063;-69
2023/12/27 07:48:04;;;;;;;0.10;0.10;;;13.80;99.90;;;;;;10582874;27;20131;-70
2023/12/27 07:53:06;;;;;;;0.15;0.15;;;13.40;99.90;;;;;;10582233;27;20047;-70
2023/12/27 07:58:08;;;;;;;0.10;0.10;;;13.90;99.90;;;;;;10581040;27;20405;-70
2023/12/27 08:03:12;;;;;;;0.10;0.10;;;13.70;99.90;;;;;;10579594;27;20047;-69
2023/12/27 08:08:14;;;;;;;0.10;0.10;;;13.90;99.90;;;;;;10588169;27;21204;-69
2023/12/27 08:13:16;;;;;;;0.30;0.30;;;13.80;99.90;;;;;;10582152;27;20426;-69
2023/12/27 08:18:21;;;;;;;0.15;0.15;;;14.00;99.90;;;;;;10590092;27;20519;-69
2023/12/27 08:23:23;;;;;;;0.10;0.10;;;13.60;99.90;;;;;;10582712;27;20138;-68
2023/12/27 08:28:25;;;;;;;0.10;0.10;;;13.40;99.90;;;;;;10573124;27;20043;-67
2023/12/27 08:33:30;;;;;;;0.10;0.10;;;13.80;99.90;;;;;;10577173;27;20050;-68
2023/12/27 08:38:33;;;;;;;0.10;0.10;;;13.90;99.90;;;;;;10580789;28;20054;-69
2023/12/27 08:43:37;;;;;;;0.10;0.10;;;13.90;99.90;;;;;;10576529;27;20155;-69
2023/12/27 08:48:41;;;;;;;0.10;0.10;;;14.00;99.90;;;;;;10574677;27;20232;-69
2023/12/27 08:53:44;;;;;;;0.10;0.10;;;14.40;99.90;;;;;;10575468;28;20595;-69
2023/12/27 08:58:46;;;;;;;0.63;0.63;;;14.00;99.90;;;;;;10588312;27;20708;-69
2023/12/27 09:03:50;;;;;;;0.83;0.83;;;14.30;99.90;;;;;;10589977;27;20047;-70
2023/12/27 09:08:53;;;;;;;0.28;0.28;;;14.10;99.90;;;;;;10588031;27;21058;-70
2023/12/27 09:13:55;;;;;;;;;;;14.10;99.90;;;;;;10587150;27;20035;-70
2023/12/27 09:18:59;;;;;;;0.50;0.50;;;14.30;99.90;;;;;;10590892;27;19920;-69
2023/12/27 09:24:02;;;;;;;0.10;0.10;;;14.50;99.90;;;;;;10587731;27;20050;-70
2023/12/27 09:29:04;;;;;;;0.10;0.10;;;14.30;99.90;;;;;;10586523;27;20054;-69
2023/12/27 09:34:07;;;;;;;0.07;0.07;;;14.30;99.90;;;;;;10586015;27;20043;-70
2023/12/27 09:39:11;;;;;;;16.55;2.30;;;14.10;99.90;;;;;;10588572;27;20195;-68
2023/12/27 09:44:13;;;;;;;0.10;0.10;;;14.40;99.90;;;;;;10573236;27;20054;-72
2023/12/27 09:49:19;;;;;;;0.20;0.20;;;14.50;99.90;;;;;;10589955;27;20505;-69
2023/12/27 09:54:21;;;;;;;0.10;0.10;;;14.30;99.90;;;;;;10581181;27;20085;-70
2023/12/27 09:59:28;;;;;;;0.10;0.10;;;14.30;99.90;;;;;;10582433;27;20059;-68
2023/12/27 10:04:48;;;;;;;0.10;0.10;;;14.30;99.90;;;;;;10587122;27;20047;-68
2023/12/27 10:09:51;;;;;;;0.10;0.10;;;13.80;99.90;;;;;;10584311;27;20186;-66
2023/12/27 10:14:55;;;;;;;0.10;0.10;;;14.10;99.90;;;;;;10588394;27;20055;-64
2023/12/27 10:19:59;;;;;;;0.10;0.10;;;14.40;99.90;;;;;;10585364;27;20697;-70
2023/12/27 10:25:01;;;;;;;0.30;0.30;;;14.10;99.90;;;;;;10585224;27;20050;-69
2023/12/27 10:30:04;;;;;;;0.10;0.10;;;13.80;99.90;;;;;;10580922;27;20055;-70
2023/12/27 10:35:09;;;;;;;1.13;1.00;;;13.90;99.90;;;;;;10567452;27;20505;-66
2023/12/27 10:40:12;;;;;;;0.20;0.20;;;13.60;99.90;;;;;;10580527;27;20188;-71
2023/12/27 10:45:16;;;;;;;0.22;0.22;;;13.80;99.90;;;;;;10586181;27;20727;-70
2023/12/27 10:50:22;;;;;;;0.15;0.15;;;14.00;99.90;;;;;;10585304;27;20071;-68
2023/12/27 10:55:28;;;;;;;0.10;0.10;;;13.60;99.90;;;;;;10584811;27;20054;-67
2023/12/27 11:00:31;;;;;;;0.10;0.10;;;14.10;99.90;;;;;;10573405;27;20429;-69
2023/12/27 11:05:37;;;;;;;0.08;0.08;;;14.00;99.90;;;;;;10585897;27;20043;-72
2023/12/27 11:10:44;;;;;;;0.20;0.20;;;13.70;99.90;;;;;;10584697;27;20135;-68
2023/12/27 11:15:47;;;;;;;0.10;0.10;;;13.40;99.90;;;;;;10575231;27;20815;-69
2023/12/27 11:20:54;;;;;;;0.15;0.15;;;13.20;99.90;;;;;;10569358;27;20368;-68
2023/12/27 11:25:59;;;;;;;0.40;0.40;;;13.30;99.90;;;;;;10585224;27;20046;-67
2023/12/27 11:31:04;;;;;;;0.10;0.10;;;13.20;99.90;;;;;;10578805;27;20220;-69
2023/12/27 11:36:09;;;;;;;6.00;2.40;;;13.20;99.90;;;;;;10577946;27;20095;-70
2023/12/27 11:41:21;;;;;;;0.10;0.10;;;12.80;99.90;;;;;;10579509;27;20498;-69
2023/12/27 11:46:30;;;;;;;0.20;0.20;;;13.10;99.90;;;;;;10597708;27;20068;-69
2023/12/27 11:51:34;;;;;;;0.17;0.17;;;13.20;99.90;;;;;;10579240;27;20712;-68
2023/12/27 11:56:37;;;;;;;0.17;0.17;;;12.60;99.90;;;;;;10579245;27;20127;-70
2023/12/27 12:01:42;;;;;;;0.40;0.40;;;12.50;99.90;;;;;;10577749;27;20441;-70
2023/12/27 12:07:16;;;;;;;4.40;1.80;;;13.20;99.90;;;;;;10581479;27;20567;-70
2023/12/27 12:12:19;;;;;;;0.55;0.55;;;13.20;99.90;;;;;;10580313;27;20254;-69
2023/12/27 12:17:21;;;;;;;;;;;13.70;99.90;;;;;;10575520;27;20541;-70
2023/12/27 12:22:25;;;;;;;0.40;0.40;;;13.70;99.90;;;;;;10575797;27;20506;-69
2023/12/27 12:27:27;;;;;;;0.10;0.10;;;14.60;99.90;;;;;;10575536;27;20093;-68
2023/12/27 12:32:29;;;;;;;0.10;0.10;;;14.40;99.90;;;;;;10583272;27;20047;-69
2023/12/27 12:37:33;;;;;;;0.10;0.10;;;14.90;99.90;;;;;;10574537;27;20067;-69
2023/12/27 12:42:36;;;;;;;0.20;0.20;;;15.00;99.90;;;;;;10585881;27;20066;-69
2023/12/27 12:47:39;;;;;;;0.10;0.10;;;14.80;99.90;;;;;;10587722;27;20054;-69
2023/12/27 12:52:44;;;;;;;0.40;0.40;;;14.90;99.90;;;;;;10590217;27;20511;-68
2023/12/27 12:57:48;;;;;;;0.10;0.10;;;14.90;99.90;;;;;;10587188;27;20047;-69
2023/12/27 13:02:56;;;;;;;0.45;0.45;;;15.00;99.90;;;;;;10588226;27;20066;-69
2023/12/27 13:08:05;;;;;;;0.45;0.45;;;14.90;99.90;;;;;;10586955;27;20047;-70
2023/12/27 13:13:07;;;;;;;0.10;0.10;;;15.10;99.90;;;;;;10591974;27;23588;-70
2023/12/27 13:18:09;;;;;;;0.03;0.03;;;15.10;99.90;;;;;;10590299;27;20047;-69
2023/12/27 13:23:14;;;;;;;0.33;0.33;;;15.20;99.90;;;;;;10586623;27;20135;-69
2023/12/27 13:28:19;;;;;;;0.20;0.20;;;15.10;99.90;;;;;;10586972;27;20078;-70
2023/12/27 13:33:22;;;;;;;0.70;0.57;;;15.10;99.90;;;;;;10589288;27;20051;-69
2023/12/27 13:38:26;;;;;;;0.10;0.10;;;14.80;99.90;;;;;;10590200;27;20083;-68
2023/12/27 13:43:28;;;;;;;0.10;0.10;;;14.80;99.90;;;;;;10584847;27;20040;-70
2023/12/27 13:48:30;;;;;;;0.10;0.10;;;15.10;99.90;;;;;;10589238;27;20051;-69
2023/12/27 13:53:35;;;;;;;0.00;0.00;;;15.10;99.90;;;;;;10583474;27;20051;-68
2023/12/27 13:58:37;;;;;;;0.10;0.10;;;14.90;99.90;;;;;;10587264;27;20058;-68
2023/12/27 14:03:41;;;;;;;0.10;0.10;;;14.40;99.90;;;;;;10586985;27;20050;-69
2023/12/27 14:08:45;;;;;;;0.10;0.10;;;14.20;99.90;;;;;;10584704;27;20609;-69
2023/12/27 14:13:49;;;;;;;0.45;0.45;;;14.80;99.90;;;;;;10586662;27;20054;-70
2023/12/27 14:18:53;;;;;;;0.10;0.10;;;14.60;99.90;;;;;;10573922;27;20063;-70
2023/12/27 14:23:57;;;;;;;0.10;0.10;;;14.50;99.90;;;;;;10574580;27;20059;-69
2023/12/27 14:29:00;;;;;;;1.10;1.10;;;15.00;99.90;;;;;;10572179;27;20584;-70
2023/12/27 14:34:03;;;;;;;0.10;0.10;;;15.20;99.90;;;;;;10582371;27;20095;-69
2023/12/27 14:39:09;;;;;;;0.00;0.00;;;15.30;99.90;;;;;;10581237;27;20494;-69
2023/12/27 14:44:12;;;;;;;0.20;0.20;;;15.20;99.90;;;;;;10578735;27;20040;-70
2023/12/27 14:49:14;;;;;;;0.00;0.00;;;15.40;99.90;;;;;;10582157;27;20051;-68
2023/12/27 14:54:17;;;;;;;0.10;0.10;;;15.10;99.90;;;;;;10583666;27;20039;-69
2023/12/27 14:59:20;;;;;;;7.45;2.83;;;15.30;99.90;;;;;;10577518;27;20126;-69
2023/12/27 15:04:22;;;;;;;7.60;2.63;;;15.10;99.90;;;;;;10577898;27;20050;-68
2023/12/27 15:09:26;;;;;;;6.85;3.10;;;15.40;99.90;;;;;;10581806;27;20066;-68
2023/12/27 15:14:28;;;;;;;11.15;3.08;;;14.80;99.90;;;;;;10577395;27;20047;-68
2023/12/27 15:19:30;;;;;;;7.60;3.03;;;15.20;99.90;;;;;;10579571;27;20046;-68
2023/12/27 15:24:38;;;;;;;12.40;3.03;;;15.30;99.90;;;;;;10577869;27;20771;-68
2023/12/27 15:29:41;;;;;;;8.40;2.50;;;15.40;99.90;;;;;;10566747;27;20060;-68
2023/12/27 15:34:43;;;;;;;6.53;2.47;;;15.30;99.90;;;;;;10583076;27;20136;-69
2023/12/27 15:39:47;;;;;;;29.35;2.47;;;15.20;99.90;;;;;;10581603;27;20078;-69
2023/12/27 15:44:49;;;;;;;6.80;2.92;;;15.60;99.90;;;;;;10577768;27;20124;-65
2023/12/27 15:49:52;;;;;;;9.07;1.98;;;15.40;99.90;;;;;;10579822;27;20047;-68
2023/12/27 15:54:55;;;;;;;4.13;1.88;;;15.70;99.90;;;;;;10574200;27;20158;-68
2023/12/27 15:59:57;;;;;;;4.43;1.63;;;15.30;99.90;;;;;;10573378;27;20373;-69
2023/12/27 16:05:00;;;;;;;9.80;2.20;;;15.50;99.90;;;;;;10575852;27;20490;-67
2023/12/27 16:10:05;;;;;;;7.13;2.08;;;15.40;99.90;;;;;;10573441;27;20492;-67
2023/12/27 16:15:08;;;;;;;7.40;1.80;;;15.40;99.90;;;;;;10584756;27;20043;-68
2023/12/27 16:20:11;;;;;;;10.18;2.55;;;15.20;99.90;;;;;;10582251;27;20294;-69
2023/12/27 16:25:15;;;;;;;;;;;14.90;99.90;;;;;;10593327;27;22066;-69
2023/12/27 16:30:17;;;;;;;6.93;1.90;;;15.40;99.90;;;;;;10582703;27;20336;-68
2023/12/27 16:35:19;;;;;;;9.87;2.40;;;15.10;99.90;;;;;;10577364;27;20458;-70
2023/12/27 16:40:23;;;;;;;6.27;2.23;;;15.30;99.90;;;;;;10573220;27;20537;-68
2023/12/27 16:45:26;;;;;;;4.10;2.03;;;15.30;99.90;;;;;;10569434;27;20179;-68
2023/12/27 16:50:32;;;;;;;8.70;3.28;;;15.10;99.90;;;;;;10572810;27;20573;-68
2023/12/27 16:55:35;;;;;;;5.05;1.70;;;15.20;99.90;;;;;;10565784;27;20402;-69
2023/12/27 17:00:38;;;;;;;11.27;2.75;;;15.40;99.90;;;;;;10585189;27;20616;-69
2023/12/27 17:05:40;;;;;;;;;;;14.40;99.90;;;;;;10570387;27;20095;-69
2023/12/27 17:10:44;;;;;;;8.65;2.83;;;14.60;99.90;;;;;;10573168;27;20921;-68
2023/12/27 17:15:46;;;;;;;7.18;3.33;;;15.10;99.90;;;;;;10574445;27;20054;-69
2023/12/27 17:20:48;;;;;;;8.00;2.20;;;15.30;99.90;;;;;;10577990;27;20055;-69
2023/12/27 17:25:51;;;;;;;3.37;1.60;;;14.30;99.90;;;;;;10569370;27;20456;-69
2023/12/27 17:30:54;;;;;;;5.00;2.42;;;14.90;99.90;;;;;;10585101;27;20047;-68
2023/12/27 17:35:56;;;;;;;7.17;2.07;;;13.70;99.90;;;;;;10587591;27;20063;-68
2023/12/27 17:41:00;;;;;;;4.30;1.90;;;14.30;99.90;;;;;;10583538;27;20055;-69
2023/12/27 17:46:04;;;;;;;8.15;1.85;;;13.50;99.90;;;;;;10587533;27;20103;-68
2023/12/27 17:51:06;;;;;;;8.25;2.47;;;13.60;99.90;;;;;;10584386;27;20050;-68
2023/12/27 17:56:10;;;;;;;6.43;2.03;;;12.70;99.90;;;;;;10577926;27;20054;-67
2023/12/27 18:01:12;;;;;;;4.80;1.80;;;12.80;99.90;;;;;;10586078;27;20058;-67
2023/12/27 18:06:14;;;;;;;8.18;2.50;;;13.10;99.90;;;;;;10585807;27;20058;-69
2023/12/27 18:11:19;;;;;;;8.97;2.37;;;13.60;99.90;;;;;;10584462;27;21382;-69
2023/12/27 18:16:21;;;;;;;11.30;3.63;;;13.70;99.90;;;;;;10586958;27;20168;-67
2023/12/27 18:21:23;;;;;;;4.57;1.97;;;13.40;99.90;;;;;;10588569;27;20118;-70
2023/12/27 18:26:27;;;;;;;3.33;1.97;;;13.80;99.90;;;;;;10586134;27;20509;-68
2023/12/27 18:31:29;;;;;;;9.52;2.15;;;13.10;99.90;;;;;;10582150;27;20062;-69
2023/12/27 18:36:32;;;;;;;7.43;2.65;;;12.40;99.90;;;;;;10584250;27;20050;-69
2023/12/27 18:41:38;;;;;;;6.43;2.70;;;12.60;99.90;;;;;;10582428;27;20054;-68
2023/12/27 18:46:41;;;;;;;7.15;2.60;;;12.40;99.90;;;;;;10585097;27;20451;-67
2023/12/27 18:51:43;;;;;;;13.02;2.47;;;12.60;99.90;;;;;;10572080;27;20763;-69
2023/12/27 18:56:47;;;;;;;11.57;2.80;;;12.50;99.90;;;;;;10580862;27;20054;-70
2023/12/27 19:01:49;;;;;;;4.90;2.70;;;12.90;99.90;;;;;;10579210;27;20047;-69
2023/12/27 19:06:52;;;;;;;7.03;1.97;;;12.60;99.90;;;;;;10583163;27;20515;-68
2023/12/27 19:11:56;;;;;;;9.18;1.70;;;11.90;99.90;;;;;;10573074;27;20062;-68
2023/12/27 19:16:58;;;;;;;8.23;2.10;;;12.60;99.90;;;;;;10582905;27;20414;-67
2023/12/27 19:22:00;;;;;;;5.72;2.17;;;11.50;99.90;;;;;;10573771;27;20058;-67
2023/12/27 19:27:04;;;;;;;4.70;2.22;;;11.40;99.90;;;;;;10577428;27;20051;-70
2023/12/27 19:32:15;;;;;;;4.90;2.15;;;11.30;99.90;;;;;;10582525;27;20061;-70
2023/12/27 19:37:17;;;;;;;9.05;2.35;;;11.40;99.90;;;;;;10572448;27;20467;-70
2023/12/27 19:42:23;;;;;;;11.48;2.45;;;11.30;99.90;;;;;;10572770;27;20055;-70
2023/12/27 19:47:25;;;;;;;5.10;2.50;;;11.70;99.90;;;;;;10573836;27;20099;-69
2023/12/27 19:52:27;;;;;;;6.13;2.75;;;11.70;99.90;;;;;;10576804;27;20058;-69
2023/12/27 19:57:31;;;;;;;5.60;2.53;;;10.70;99.90;;;;;;10573186;27;20044;-70
2023/12/27 20:02:34;;;;;;;7.38;2.92;;;10.20;99.90;;;;;;10572767;27;20051;-69
2023/12/27 20:07:36;;;;;;;6.93;2.53;;;11.40;99.90;;;;;;10579959;27;20047;-68
2023/12/27 20:12:41;;;;;;;5.78;1.70;;;11.50;99.90;;;;;;10570310;27;20078;-70
2023/12/27 20:17:45;;;;;;;3.30;1.98;;;11.70;99.90;;;;;;10575879;27;20079;-70
2023/12/27 20:22:49;;;;;;;5.93;2.35;;;11.80;99.90;;;;;;10575198;27;20063;-70
2023/12/27 20:27:56;;;;;;;6.45;2.13;;;10.80;99.90;;;;;;10577623;27;20039;-70
2023/12/27 20:32:58;;;;;;;7.10;2.50;;;11.40;99.90;;;;;;10572341;27;20051;-69
2023/12/27 20:38:00;;;;;;;3.97;2.00;;;10.70;99.90;;;;;;10571850;27;20165;-70
2023/12/27 20:43:03;;;;;;;3.03;2.30;;;10.60;99.90;;;;;;10576347;27;20047;-68
2023/12/27 20:48:06;;;;;;;6.70;2.75;;;10.50;99.90;;;;;;10572265;27;20093;-69
2023/12/27 20:53:09;;;;;;;5.22;3.05;;;11.20;99.90;;;;;;10578676;27;20055;-70
2023/12/27 20:58:13;;;;;;;4.22;2.63;;;10.60;99.90;;;;;;10581075;27;20054;-70
2023/12/27 21:03:22;;;;;;;5.88;2.92;;;10.50;99.90;;;;;;10587409;27;20058;-70
2023/12/27 21:08:24;;;;;;;4.25;2.20;;;10.60;99.90;;;;;;10586131;27;20055;-69
2023/12/27 21:13:37;;;;;;;4.50;2.27;;;11.00;99.90;;;;;;10586739;27;20062;-68
2023/12/27 21:18:40;;;;;;;21.40;4.28;;;10.80;99.90;;;;;;10581746;27;20058;-69
2023/12/27 21:23:43;;;;;;;4.25;2.53;;;10.60;99.90;;;;;;10583451;27;20051;-69
2023/12/27 21:28:48;;;;;;;3.38;2.03;;;10.60;99.90;;;;;;10581543;27;20129;-69
2023/12/27 21:33:53;;;;;;;10.00;3.63;;;10.80;99.90;;;;;;10583619;27;20051;-69
2023/12/27 21:38:58;;;;;;;6.82;2.90;;;10.70;99.90;;;;;;10567888;27;20466;-71
2023/12/27 21:44:02;;;;;;;9.88;2.55;;;10.70;99.90;;;;;;10581298;27;20154;-70
2023/12/27 21:49:05;;;;;;;8.07;2.72;;;10.80;99.90;;;;;;10573810;27;20047;-70
2023/12/27 21:54:08;;;;;;;4.55;2.92;;;10.80;99.90;;;;;;10579220;27;20543;-70
2023/12/27 21:59:11;;;;;;;6.80;2.85;;;10.60;99.90;;;;;;10581689;27;20065;-71
2023/12/27 22:04:13;;;;;;;6.72;2.58;;;10.60;99.90;;;;;;10579297;27;20103;-70
2023/12/27 22:09:15;;;;;;;8.05;4.07;;;10.70;99.90;;;;;;10585428;27;20133;-68
2023/12/27 22:14:21;;;;;;;9.80;2.90;;;11.10;99.90;;;;;;10590532;27;20174;-71
2023/12/27 22:19:40;;;;;;;7.63;3.88;;;11.10;99.90;;;;;;10585994;27;20050;-70
2023/12/27 22:24:44;;;;;;;15.52;3.30;;;11.10;99.90;;;;;;10586477;27;20082;-70
2023/12/27 22:29:49;;;;;;;12.93;2.90;;;11.10;99.90;;;;;;10585603;27;20055;-70
2023/12/27 22:34:51;;;;;;;17.02;4.32;;;11.00;99.90;;;;;;10582508;27;20415;-70
2023/12/27 22:39:53;;;;;;;23.35;5.47;;;11.00;99.90;;;;;;10585088;27;20062;-70
2023/12/27 22:44:57;;;;;;;16.57;4.20;;;11.10;99.90;;;;;;10575607;27;20604;-70
2023/12/27 22:50:02;;;;;;;10.48;3.15;;;11.00;99.90;;;;;;10583378;27;23056;-69
2023/12/27 22:55:04;;;;;;;13.05;4.18;;;11.10;99.90;;;;;;10582509;27;20043;-71
2023/12/27 23:00:11;;;;;;;15.73;2.83;;;11.00;99.90;;;;;;10581560;27;20062;-69
2023/12/27 23:05:13;;;;;;;22.27;4.28;;;11.00;99.90;;;;;;10586095;27;20055;-71
2023/12/27 23:10:15;;;;;;;17.77;4.30;;;11.00;99.90;;;;;;10583058;27;20172;-71
2023/12/27 23:15:19;;;;;;;19.47;4.17;;;11.00;99.90;;;;;;10582548;27;20450;-70
2023/12/27 23:20:21;;;;;;;17.92;4.05;;;11.10;99.90;;;;;;10580597;27;20422;-70
2023/12/27 23:25:23;;;;;;;25.05;4.00;;;11.00;99.90;;;;;;10574809;27;20043;-71
2023/12/27 23:30:27;;;;;;;22.60;4.20;;;11.00;99.90;;;;;;10582292;27;20056;-70
2023/12/27 23:35:29;;;;;;;16.63;4.90;;;11.00;99.90;;;;;;10582600;27;20085;-70
2023/12/27 23:40:31;;;;;;;18.85;4.47;;;11.10;99.90;;;;;;10579620;27;20059;-71
2023/12/27 23:45:34;;;;;;;14.83;3.90;;;11.20;99.90;;;;;;10584169;27;20166;-71
2023/12/27 23:50:37;;;;;;;13.45;4.25;;;11.00;99.90;;;;;;10586270;27;20512;-74
2023/12/27 23:55:39;;;;;;;8.90;2.92;;;11.00;99.90;;;;;;10569085;27;20059;-70
